West Plains, MO

1:11 AM CDT on April 28, 2015 (GMT -0500)
KMOWESTP5 | | Change Station
CLOSE
Current Station
Personal Weather Station
Location: West Plains, MO
Elevation: 1024 ft
Nearby Weather Stations

Elev 1024 ft 36.76 °N, 91.89 °W | Updated 14 minutes ago

Partly Cloudy
Partly Cloudy
47.7 °F
Feels Like 48 °F
N
0.0
Wind Variable Wind from NE

Today
High -- | Low -- °F
--% Chance of Precip.
Yesterday
High -- | Low -- °F
Precip. -- in
6:17 AM 7:53 PM
Waxing Gibbous, 71% visible
Pressure 30.06 in
Visibility 10.0 miles
Clouds Clear
Windchill 48 °F
Dew Point 36 °F
Humidity 63%
Rainfall in
Snow Depth Not available.
UV 0 out of 12
Pollen 10.10 out of 12
Air Quality Not available.
Flu Activity Local Activity
METAR KUNO 280553Z AUTO 06003KT 10SM CLR 10/02 A3006 RMK AO2 SLP177 T01000017 10161 20094 401890061 53007

More Conditions Fewer Conditions

Pressure 30.06 in
Visibility 10.0 miles
Clouds Clear
Windchill 48 °F
Dew Point 36 °F
Humidity 63%
Rainfall in
Snow Depth Not available.
UV 0 out of 12
Pollen 10.10 out of 12
Air Quality Not available.
Flu Activity Local Activity
METAR KUNO 280553Z AUTO 06003KT 10SM CLR 10/02 A3006 RMK AO2 SLP177 T01000017 10161 20094 401890061 53007

More Conditions Fewer Conditions

10-Day Weather Forecast

Almanac

Astronomy

Apr. 28, 2015 Rise Set
Actual Time
Civil Twilight
Nautical Twilight
Astronomical Twilight
Moon
Length of Visible Light
Length of Day
Tomorrow will be .
, % of the Moon is Illuminated

Today's Extremes

State Highs State Lows

Community

WunderPhotos

Upload Photos

1,817,591 photos uploaded!

WunderBlogs® & News

Nearby

Air Quality

  Air Quality AQ Index Pollutant
Not available.

Snow Depth

Station Depth Elevation

Earthquake Activity

City Distance Mag. Time & Date
Minimum magnitude displayed is 2.5.

Coastal Water Temperatures

Place Temperature

Stations

Nearby Weather Stations

Station Location Temp. Windchill Dew Point Humidity Wind Precip. Elev Updated Type